sensor_id;sensor_type;location;lat;lon;timestamp;pressure;altitude;pressure_sealevel;temperature;humidity
74103;BME280;62853;46.166;3.640;2024-01-27T00:00:10;103365.88;;;7.39;100.00
74103;BME280;62853;46.166;3.640;2024-01-27T00:02:36;103363.25;;;7.34;100.00
74103;BME280;62853;46.166;3.640;2024-01-27T00:05:01;103358.00;;;7.34;100.00
74103;BME280;62853;46.166;3.640;2024-01-27T00:07:27;103352.75;;;7.33;100.00
74103;BME280;62853;46.166;3.640;2024-01-27T00:09:57;103344.03;;;7.31;100.00
74103;BME280;62853;46.166;3.640;2024-01-27T00:12:24;103342.28;;;7.28;100.00
74103;BME280;62853;46.166;3.640;2024-01-27T00:14:49;103343.16;;;7.25;100.00
74103;BME280;62853;46.166;3.640;2024-01-27T00:17:15;103343.16;;;7.25;100.00
74103;BME280;62853;46.166;3.640;2024-01-27T00:19:40;103341.41;;;7.24;100.00
74103;BME280;62853;46.166;3.640;2024-01-27T00:22:07;103341.41;;;7.23;100.00
74103;BME280;62853;46.166;3.640;2024-01-27T00:24:32;103333.53;;;7.20;100.00
74103;BME280;62853;46.166;3.640;2024-01-27T00:26:58;103333.56;;;7.17;100.00
74103;BME280;62853;46.166;3.640;2024-01-27T00:29:23;103338.81;;;7.17;100.00
74103;BME280;62853;46.166;3.640;2024-01-27T00:31:48;103345.78;;;7.15;100.00
74103;BME280;62853;46.166;3.640;2024-01-27T00:34:19;103337.91;;;7.12;100.00
74103;BME280;62853;46.166;3.640;2024-01-27T00:36:45;103345.78;;;7.10;100.00
74103;BME280;62853;46.166;3.640;2024-01-27T00:39:14;103351.91;;;7.07;100.00
74103;BME280;62853;46.166;3.640;2024-01-27T00:41:40;103354.50;;;7.06;100.00
74103;BME280;62853;46.166;3.640;2024-01-27T00:44:05;103360.63;;;7.03;100.00
74103;BME280;62853;46.166;3.640;2024-01-27T00:46:30;103356.25;;;7.02;100.00
74103;BME280;62853;46.166;3.640;2024-01-27T00:48:56;103359.75;;;7.01;100.00
74103;BME280;62853;46.166;3.640;2024-01-27T00:51:21;103362.34;;;7.00;100.00
74103;BME280;62853;46.166;3.640;2024-01-27T00:53:47;103362.38;;;6.98;100.00
74103;BME280;62853;46.166;3.640;2024-01-27T00:56:12;103363.25;;;6.96;100.00
74103;BME280;62853;46.166;3.640;2024-01-27T00:58:37;103366.72;;;6.95;100.00
74103;BME280;62853;46.166;3.640;2024-01-27T01:01:03;103359.75;;;6.94;100.00
74103;BME280;62853;46.166;3.640;2024-01-27T01:03:28;103359.75;;;6.91;100.00
74103;BME280;62853;46.166;3.640;2024-01-27T01:05:54;103369.34;;;6.90;100.00
74103;BME280;62853;46.166;3.640;2024-01-27T01:08:19;103364.97;;;6.89;100.00
74103;BME280;62853;46.166;3.640;2024-01-27T01:10:44;103368.47;;;6.88;100.00
74103;BME280;62853;46.166;3.640;2024-01-27T01:13:10;103371.09;;;6.85;100.00
74103;BME280;62853;46.166;3.640;2024-01-27T01:15:35;103370.19;;;6.84;100.00
74103;BME280;62853;46.166;3.640;2024-01-27T01:18:01;103373.72;;;6.82;100.00
74103;BME280;62853;46.166;3.640;2024-01-27T01:20:26;103373.72;;;6.82;100.00
74103;BME280;62853;46.166;3.640;2024-01-27T01:22:52;103369.31;;;6.79;100.00
74103;BME280;62853;46.166;3.640;2024-01-27T01:25:18;103365.84;;;6.79;100.00
74103;BME280;62853;46.166;3.640;2024-01-27T01:27:44;103374.56;;;6.78;100.00
74103;BME280;62853;46.166;3.640;2024-01-27T01:30:10;103368.44;;;6.76;100.00
74103;BME280;62853;46.166;3.640;2024-01-27T01:32:35;103366.72;;;6.73;100.00
74103;BME280;62853;46.166;3.640;2024-01-27T01:35:01;103352.72;;;6.71;100.00
74103;BME280;62853;46.166;3.640;2024-01-27T01:37:26;103357.09;;;6.70;100.00
74103;BME280;62853;46.166;3.640;2024-01-27T01:39:52;103363.22;;;6.69;100.00
74103;BME280;62853;46.166;3.640;2024-01-27T01:42:17;103369.31;;;6.68;100.00
74103;BME280;62853;46.166;3.640;2024-01-27T01:44:43;103364.06;;;6.67;100.00
74103;BME280;62853;46.166;3.640;2024-01-27T01:47:08;103368.44;;;6.66;100.00
74103;BME280;62853;46.166;3.640;2024-01-27T01:49:35;103357.97;;;6.65;100.00
74103;BME280;62853;46.166;3.640;2024-01-27T01:52:01;103357.97;;;6.63;100.00
74103;BME280;62853;46.166;3.640;2024-01-27T01:54:26;103364.03;;;6.61;100.00
74103;BME280;62853;46.166;3.640;2024-01-27T01:56:58;103374.50;;;6.59;100.00
74103;BME280;62853;46.166;3.640;2024-01-27T01:59:24;103371.03;;;6.57;100.00
74103;BME280;62853;46.166;3.640;2024-01-27T02:01:49;103386.72;;;6.57;100.00
74103;BME280;62853;46.166;3.640;2024-01-27T02:04:15;103385.00;;;6.55;100.00
74103;BME280;62853;46.166;3.640;2024-01-27T02:06:40;103383.22;;;6.50;100.00
74103;BME280;62853;46.166;3.640;2024-01-27T02:09:06;103375.34;;;6.49;100.00
74103;BME280;62853;46.166;3.640;2024-01-27T02:11:31;103384.09;;;6.49;100.00
74103;BME280;62853;46.166;3.640;2024-01-27T02:13:56;103374.47;;;6.47;100.00
74103;BME280;62853;46.166;3.640;2024-01-27T02:16:22;103367.50;;;6.46;100.00
74103;BME280;62853;46.166;3.640;2024-01-27T02:18:47;103380.59;;;6.43;100.00
74103;BME280;62853;46.166;3.640;2024-01-27T02:21:13;103381.44;;;6.42;100.00
74103;BME280;62853;46.166;3.640;2024-01-27T02:23:38;103383.19;;;6.40;100.00
74103;BME280;62853;46.166;3.640;2024-01-27T02:26:04;103377.09;;;6.38;100.00
74103;BME280;62853;46.166;3.640;2024-01-27T02:28:29;103382.31;;;6.38;100.00
74103;BME280;62853;46.166;3.640;2024-01-27T02:30:57;103390.19;;;6.38;100.00
74103;BME280;62853;46.166;3.640;2024-01-27T02:33:23;103393.66;;;6.37;100.00
74103;BME280;62853;46.166;3.640;2024-01-27T02:35:48;103381.44;;;6.37;100.00
74103;BME280;62853;46.166;3.640;2024-01-27T02:38:14;103381.41;;;6.36;100.00
74103;BME280;62853;46.166;3.640;2024-01-27T02:40:39;103393.63;;;6.33;100.00
74103;BME280;62853;46.166;3.640;2024-01-27T02:43:04;103375.31;;;6.32;100.00
74103;BME280;62853;46.166;3.640;2024-01-27T02:45:30;103375.31;;;6.32;100.00
74103;BME280;62853;46.166;3.640;2024-01-27T02:47:55;103384.91;;;6.31;100.00
74103;BME280;62853;46.166;3.640;2024-01-27T02:50:20;103390.13;;;6.31;100.00
74103;BME280;62853;46.166;3.640;2024-01-27T02:52:46;103377.03;;;6.30;100.00
74103;BME280;62853;46.166;3.640;2024-01-27T02:55:11;103377.94;;;6.27;100.00
74103;BME280;62853;46.166;3.640;2024-01-27T02:57:37;103382.25;;;6.21;100.00
74103;BME280;62853;46.166;3.640;2024-01-27T03:00:03;103383.13;;;6.21;100.00
74103;BME280;62853;46.166;3.640;2024-01-27T03:02:30;103374.41;;;6.19;100.00
74103;BME280;62853;46.166;3.640;2024-01-27T03:04:55;103377.03;;;6.21;100.00
74103;BME280;62853;46.166;3.640;2024-01-27T03:07:20;103370.91;;;6.20;100.00
74103;BME280;62853;46.166;3.640;2024-01-27T03:09:46;103381.34;;;6.19;100.00
74103;BME280;62853;46.166;3.640;2024-01-27T03:12:11;103382.22;;;6.16;100.00
74103;BME280;62853;46.166;3.640;2024-01-27T03:14:37;103381.34;;;6.14;100.00
74103;BME280;62853;46.166;3.640;2024-01-27T03:17:03;103375.22;;;6.12;100.00
74103;BME280;62853;46.166;3.640;2024-01-27T03:19:28;103385.66;;;6.10;100.00
74103;BME280;62853;46.166;3.640;2024-01-27T03:21:54;103386.59;;;6.14;100.00
74103;BME280;62853;46.166;3.640;2024-01-27T03:24:19;103380.47;;;6.13;100.00
74103;BME280;62853;46.166;3.640;2024-01-27T03:26:45;103394.44;;;6.12;100.00
74103;BME280;62853;46.166;3.640;2024-01-27T03:29:10;103383.88;;;6.02;100.00
74103;BME280;62853;46.166;3.640;2024-01-27T03:31:36;103383.91;;;6.05;100.00
74103;BME280;62853;46.166;3.640;2024-01-27T03:34:01;103397.00;;;6.05;100.00
74103;BME280;62853;46.166;3.640;2024-01-27T03:36:27;103403.09;;;6.05;100.00
74103;BME280;62853;46.166;3.640;2024-01-27T03:38:53;103393.47;;;6.01;100.00
74103;BME280;62853;46.166;3.640;2024-01-27T03:41:19;103397.81;;;5.96;100.00
74103;BME280;62853;46.166;3.640;2024-01-27T03:43:45;103404.78;;;5.99;100.00
74103;BME280;62853;46.166;3.640;2024-01-27T03:46:10;103403.94;;;5.98;100.00
74103;BME280;62853;46.166;3.640;2024-01-27T03:48:35;103397.84;;;5.99;100.00
74103;BME280;62853;46.166;3.640;2024-01-27T03:51:02;103389.13;;;6.02;100.00
74103;BME280;62853;46.166;3.640;2024-01-27T03:53:27;103394.34;;;6.00;100.00
74103;BME280;62853;46.166;3.640;2024-01-27T03:55:53;103388.22;;;5.98;100.00
74103;BME280;62853;46.166;3.640;2024-01-27T03:58:19;103376.91;;;5.99;100.00
74103;BME280;62853;46.166;3.640;2024-01-27T04:00:45;103376.88;;;5.96;100.00
74103;BME280;62853;46.166;3.640;2024-01-27T04:03:10;103389.94;;;5.94;100.00
74103;BME280;62853;46.166;3.640;2024-01-27T04:05:35;103396.91;;;5.94;100.00
74103;BME280;62853;46.166;3.640;2024-01-27T04:08:01;103391.69;;;5.94;100.00
74103;BME280;62853;46.166;3.640;2024-01-27T04:10:27;103397.75;;;5.93;100.00
74103;BME280;62853;46.166;3.640;2024-01-27T04:12:52;103401.25;;;5.92;100.00
74103;BME280;62853;46.166;3.640;2024-01-27T04:15:18;103394.28;;;5.91;100.00
74103;BME280;62853;46.166;3.640;2024-01-27T04:17:43;103396.00;;;5.87;100.00
74103;BME280;62853;46.166;3.640;2024-01-27T04:20:09;103394.22;;;5.86;100.00
74103;BME280;62853;46.166;3.640;2024-01-27T04:22:35;103390.78;;;5.89;100.00
74103;BME280;62853;46.166;3.640;2024-01-27T04:25:00;103399.47;;;5.86;100.00
74103;BME280;62853;46.166;3.640;2024-01-27T04:27:29;103408.19;;;5.85;100.00
74103;BME280;62853;46.166;3.640;2024-01-27T04:29:55;103409.06;;;5.84;100.00
74103;BME280;62853;46.166;3.640;2024-01-27T04:32:22;103405.56;;;5.82;100.00
74103;BME280;62853;46.166;3.640;2024-01-27T04:34:47;103404.66;;;5.80;100.00
74103;BME280;62853;46.166;3.640;2024-01-27T04:37:13;103411.63;;;5.80;100.00
74103;BME280;62853;46.166;3.640;2024-01-27T04:39:39;103412.50;;;5.80;100.00
74103;BME280;62853;46.166;3.640;2024-01-27T04:42:05;103410.78;;;5.81;100.00
74103;BME280;62853;46.166;3.640;2024-01-27T04:44:31;103409.00;;;5.78;100.00
74103;BME280;62853;46.166;3.640;2024-01-27T04:46:57;103406.38;;;5.76;100.00
74103;BME280;62853;46.166;3.640;2024-01-27T04:49:22;103396.78;;;5.74;100.00
74103;BME280;62853;46.166;3.640;2024-01-27T04:51:47;103402.00;;;5.74;100.00
74103;BME280;62853;46.166;3.640;2024-01-27T04:54:13;103400.25;;;5.73;100.00
74103;BME280;62853;46.166;3.640;2024-01-27T04:56:38;103405.47;;;5.73;100.00
74103;BME280;62853;46.166;3.640;2024-01-27T04:59:04;103408.09;;;5.73;100.00
74103;BME280;62853;46.166;3.640;2024-01-27T05:01:31;103403.72;;;5.70;100.00
74103;BME280;62853;46.166;3.640;2024-01-27T05:03:57;103402.84;;;5.70;100.00
74103;BME280;62853;46.166;3.640;2024-01-27T05:06:22;103404.59;;;5.69;100.00
74103;BME280;62853;46.166;3.640;2024-01-27T05:08:47;103410.66;;;5.68;100.00
74103;BME280;62853;46.166;3.640;2024-01-27T05:11:13;103408.06;;;5.68;100.00
74103;BME280;62853;46.166;3.640;2024-01-27T05:13:39;103414.16;;;5.67;100.00
74103;BME280;62853;46.166;3.640;2024-01-27T05:16:05;103405.47;;;5.67;100.00
74103;BME280;62853;46.166;3.640;2024-01-27T05:18:31;103399.34;;;5.66;100.00
74103;BME280;62853;46.166;3.640;2024-01-27T05:20:56;103403.69;;;5.64;100.00
74103;BME280;62853;46.166;3.640;2024-01-27T05:23:22;103397.56;;;5.62;100.00
74103;BME280;62853;46.166;3.640;2024-01-27T05:25:48;103406.28;;;5.64;100.00
74103;BME280;62853;46.166;3.640;2024-01-27T05:28:14;103411.53;;;5.64;100.00
74103;BME280;62853;46.166;3.640;2024-01-27T05:30:39;103404.56;;;5.62;100.00
74103;BME280;62853;46.166;3.640;2024-01-27T05:33:04;103403.63;;;5.59;100.00
74103;BME280;62853;46.166;3.640;2024-01-27T05:35:30;103405.41;;;5.61;100.00
74103;BME280;62853;46.166;3.640;2024-01-27T05:37:56;103402.78;;;5.59;100.00
74103;BME280;62853;46.166;3.640;2024-01-27T05:40:21;103400.16;;;5.57;100.00
74103;BME280;62853;46.166;3.640;2024-01-27T05:42:47;103400.16;;;5.57;100.00
74103;BME280;62853;46.166;3.640;2024-01-27T05:45:12;103393.16;;;5.56;100.00
74103;BME280;62853;46.166;3.640;2024-01-27T05:47:38;103381.84;;;5.56;100.00
74103;BME280;62853;46.166;3.640;2024-01-27T05:50:04;103392.28;;;5.54;100.00
74103;BME280;62853;46.166;3.640;2024-01-27T05:52:29;103381.81;;;5.54;100.00
74103;BME280;62853;46.166;3.640;2024-01-27T05:54:55;103387.94;;;5.55;100.00
74103;BME280;62853;46.166;3.640;2024-01-27T05:57:20;103388.78;;;5.52;100.00
74103;BME280;62853;46.166;3.640;2024-01-27T05:59:45;103387.03;;;5.53;100.00
74103;BME280;62853;46.166;3.640;2024-01-27T06:02:11;103398.34;;;5.49;100.00
74103;BME280;62853;46.166;3.640;2024-01-27T06:04:36;103392.25;;;5.48;100.00
74103;BME280;62853;46.166;3.640;2024-01-27T06:07:02;103386.09;;;5.46;100.00
74103;BME280;62853;46.166;3.640;2024-01-27T06:09:27;103393.09;;;5.47;100.00
74103;BME280;62853;46.166;3.640;2024-01-27T06:11:52;103381.78;;;5.48;100.00
74103;BME280;62853;46.166;3.640;2024-01-27T06:14:18;103383.50;;;5.46;100.00
74103;BME280;62853;46.166;3.640;2024-01-27T06:16:44;103385.22;;;5.44;100.00
74103;BME280;62853;46.166;3.640;2024-01-27T06:19:09;103383.50;;;5.43;100.00
74103;BME280;62853;46.166;3.640;2024-01-27T06:21:34;103383.50;;;5.43;100.00
74103;BME280;62853;46.166;3.640;2024-01-27T06:24:00;103400.03;;;5.42;100.00
74103;BME280;62853;46.166;3.640;2024-01-27T06:26:25;103391.31;;;5.40;100.00
74103;BME280;62853;46.166;3.640;2024-01-27T06:28:51;103391.28;;;5.37;100.00
74103;BME280;62853;46.166;3.640;2024-01-27T06:31:16;103396.50;;;5.37;100.00
74103;BME280;62853;46.166;3.640;2024-01-27T06:33:42;103401.72;;;5.35;100.00
74103;BME280;62853;46.166;3.640;2024-01-27T06:36:07;103403.47;;;5.35;100.00
74103;BME280;62853;46.166;3.640;2024-01-27T06:38:35;103392.13;;;5.36;100.00
74103;BME280;62853;46.166;3.640;2024-01-27T06:41:01;103405.22;;;5.37;100.00
74103;BME280;62853;46.166;3.640;2024-01-27T06:43:26;103402.59;;;5.36;100.00
74103;BME280;62853;46.166;3.640;2024-01-27T06:45:51;103398.25;;;5.35;100.00
74103;BME280;62853;46.166;3.640;2024-01-27T06:48:17;103404.34;;;5.35;100.00
74103;BME280;62853;46.166;3.640;2024-01-27T06:50:42;103400.84;;;5.33;100.00
74103;BME280;62853;46.166;3.640;2024-01-27T06:53:07;103406.88;;;5.28;100.00
74103;BME280;62853;46.166;3.640;2024-01-27T06:55:35;103414.75;;;5.31;100.00
74103;BME280;62853;46.166;3.640;2024-01-27T06:58:00;103427.81;;;5.31;100.00
74103;BME280;62853;46.166;3.640;2024-01-27T07:00:26;103423.47;;;5.30;100.00
74103;BME280;62853;46.166;3.640;2024-01-27T07:02:52;103431.31;;;5.30;100.00
74103;BME280;62853;46.166;3.640;2024-01-27T07:05:17;103427.78;;;5.29;100.00
74103;BME280;62853;46.166;3.640;2024-01-27T07:07:43;103438.25;;;5.29;100.00
74103;BME280;62853;46.166;3.640;2024-01-27T07:10:08;103440.00;;;5.29;100.00
74103;BME280;62853;46.166;3.640;2024-01-27T07:12:34;103441.75;;;5.30;100.00
74103;BME280;62853;46.166;3.640;2024-01-27T07:15:00;103442.59;;;5.29;100.00
74103;BME280;62853;46.166;3.640;2024-01-27T07:17:29;103434.75;;;5.29;100.00
74103;BME280;62853;46.166;3.640;2024-01-27T07:19:54;103442.34;;;5.02;100.00
74103;BME280;62853;46.166;3.640;2024-01-27T07:22:20;103439.91;;;5.19;100.00
74103;BME280;62853;46.166;3.640;2024-01-27T07:24:45;103455.59;;;5.19;100.00
74103;BME280;62853;46.166;3.640;2024-01-27T07:27:14;103446.88;;;5.20;100.00
74103;BME280;62853;46.166;3.640;2024-01-27T07:29:40;103452.97;;;5.21;100.00
74103;BME280;62853;46.166;3.640;2024-01-27T07:32:05;103448.59;;;5.18;100.00
74103;BME280;62853;46.166;3.640;2024-01-27T07:34:33;103449.47;;;5.19;100.00
74103;BME280;62853;46.166;3.640;2024-01-27T07:36:58;103444.25;;;5.20;100.00
74103;BME280;62853;46.166;3.640;2024-01-27T07:39:24;103452.97;;;5.18;100.00
74103;BME280;62853;46.166;3.640;2024-01-27T07:41:49;103452.97;;;5.18;100.00
74103;BME280;62853;46.166;3.640;2024-01-27T07:44:14;103463.41;;;5.18;100.00
74103;BME280;62853;46.166;3.640;2024-01-27T07:46:41;103452.06;;;5.17;100.00
74103;BME280;62853;46.166;3.640;2024-01-27T07:49:07;103449.47;;;5.19;100.00
74103;BME280;62853;46.166;3.640;2024-01-27T07:51:33;103455.53;;;5.15;100.00
74103;BME280;62853;46.166;3.640;2024-01-27T07:53:59;103454.69;;;5.19;100.00
74103;BME280;62853;46.166;3.640;2024-01-27T07:56:25;103468.63;;;5.21;100.00
74103;BME280;62853;46.166;3.640;2024-01-27T07:58:50;103461.72;;;5.23;100.00
74103;BME280;62853;46.166;3.640;2024-01-27T08:01:16;103458.22;;;5.22;100.00
74103;BME280;62853;46.166;3.640;2024-01-27T08:03:42;103461.75;;;5.25;100.00
74103;BME280;62853;46.166;3.640;2024-01-27T08:06:14;103456.50;;;5.25;100.00
74103;BME280;62853;46.166;3.640;2024-01-27T08:08:40;103454.78;;;5.27;100.00
74103;BME280;62853;46.166;3.640;2024-01-27T08:11:05;103448.69;;;5.26;100.00
74103;BME280;62853;46.166;3.640;2024-01-27T08:13:31;103439.09;;;5.27;100.00
74103;BME280;62853;46.166;3.640;2024-01-27T08:15:56;103445.19;;;5.27;100.00
74103;BME280;62853;46.166;3.640;2024-01-27T08:18:21;103445.22;;;5.29;100.00
74103;BME280;62853;46.166;3.640;2024-01-27T08:20:47;103443.47;;;5.31;100.00
74103;BME280;62853;46.166;3.640;2024-01-27T08:23:12;103436.53;;;5.34;100.00
74103;BME280;62853;46.166;3.640;2024-01-27T08:25:37;103439.16;;;5.36;100.00
74103;BME280;62853;46.166;3.640;2024-01-27T08:28:04;103437.28;;;5.18;100.00
74103;BME280;62853;46.166;3.640;2024-01-27T08:30:30;103433.06;;;5.34;100.00
74103;BME280;62853;46.166;3.640;2024-01-27T08:32:55;103440.09;;;5.38;100.00
74103;BME280;62853;46.166;3.640;2024-01-27T08:35:20;103437.47;;;5.39;100.00
74103;BME280;62853;46.166;3.640;2024-01-27T08:37:46;103447.06;;;5.40;100.00
74103;BME280;62853;46.166;3.640;2024-01-27T08:40:11;103449.69;;;5.42;100.00
74103;BME280;62853;46.166;3.640;2024-01-27T08:42:38;103454.06;;;5.45;100.00
74103;BME280;62853;46.166;3.640;2024-01-27T08:45:05;103451.47;;;5.48;100.00
74103;BME280;62853;46.166;3.640;2024-01-27T08:47:31;103448.03;;;5.50;100.00
74103;BME280;62853;46.166;3.640;2024-01-27T08:49:57;103450.66;;;5.53;100.00
74103;BME280;62853;46.166;3.640;2024-01-27T08:52:22;103451.41;;;5.40;100.00
74103;BME280;62853;46.166;3.640;2024-01-27T08:54:47;103446.31;;;5.54;100.00
74103;BME280;62853;46.166;3.640;2024-01-27T08:57:13;103463.78;;;5.59;100.00
74103;BME280;62853;46.166;3.640;2024-01-27T08:59:38;103462.97;;;5.65;100.00
74103;BME280;62853;46.166;3.640;2024-01-27T09:02:03;103468.25;;;5.76;100.00
74103;BME280;62853;46.166;3.640;2024-01-27T09:04:30;103472.69;;;5.85;100.00
74103;BME280;62853;46.166;3.640;2024-01-27T09:06:55;103477.09;;;5.93;100.00
74103;BME280;62853;46.166;3.640;2024-01-27T09:09:20;103472.81;;;6.00;100.00
74103;BME280;62853;46.166;3.640;2024-01-27T09:11:46;103471.13;;;6.08;100.00
74103;BME280;62853;46.166;3.640;2024-01-27T09:14:11;103465.03;;;6.08;100.00
74103;BME280;62853;46.166;3.640;2024-01-27T09:16:37;103472.09;;;6.23;100.00
74103;BME280;62853;46.166;3.640;2024-01-27T09:19:03;103471.28;;;6.33;100.00
74103;BME280;62853;46.166;3.640;2024-01-27T09:21:28;103479.19;;;6.42;100.00
74103;BME280;62853;46.166;3.640;2024-01-27T09:23:55;103484.47;;;6.51;100.00
74103;BME280;62853;46.166;3.640;2024-01-27T09:26:22;103489.75;;;6.64;100.00
74103;BME280;62853;46.166;3.640;2024-01-27T09:28:48;103482.84;;;6.80;100.00
74103;BME280;62853;46.166;3.640;2024-01-27T09:31:22;103487.28;;;7.07;100.00
74103;BME280;62853;46.166;3.640;2024-01-27T09:33:52;103477.72;;;7.26;100.00
74103;BME280;62853;46.166;3.640;2024-01-27T09:36:18;103485.63;;;7.48;100.00
74103;BME280;62853;46.166;3.640;2024-01-27T09:38:45;103486.47;;;8.02;100.00
74103;BME280;62853;46.166;3.640;2024-01-27T09:41:12;103496.06;;;8.14;100.00
74103;BME280;62853;46.166;3.640;2024-01-27T09:43:42;103500.47;;;8.01;100.00
74103;BME280;62853;46.166;3.640;2024-01-27T09:46:10;103499.59;;;8.10;100.00
74103;BME280;62853;46.166;3.640;2024-01-27T09:48:35;103498.72;;;8.06;100.00
74103;BME280;62853;46.166;3.640;2024-01-27T09:51:01;103500.47;;;7.99;100.00
74103;BME280;62853;46.166;3.640;2024-01-27T09:53:28;103503.09;;;7.95;100.00
74103;BME280;62853;46.166;3.640;2024-01-27T09:55:54;103502.22;;;7.90;100.00
74103;BME280;62853;46.166;3.640;2024-01-27T09:58:23;103508.34;;;7.86;100.00
74103;BME280;62853;46.166;3.640;2024-01-27T10:00:49;103506.59;;;7.85;100.00
74103;BME280;62853;46.166;3.640;2024-01-27T10:03:15;103505.72;;;8.01;100.00
74103;BME280;62853;46.166;3.640;2024-01-27T10:05:42;103507.38;;;8.54;100.00
74103;BME280;62853;46.166;3.640;2024-01-27T10:08:09;103508.13;;;8.89;100.00
74103;BME280;62853;46.166;3.640;2024-01-27T10:10:35;103512.38;;;9.07;100.00
74103;BME280;62853;46.166;3.640;2024-01-27T10:13:02;103506.19;;;9.17;100.00
74103;BME280;62853;46.166;3.640;2024-01-27T10:15:29;103512.13;;;9.52;100.00
74103;BME280;62853;46.166;3.640;2024-01-27T10:18:07;103513.63;;;9.82;100.00
74103;BME280;62853;46.166;3.640;2024-01-27T10:20:32;103515.25;;;9.98;100.00
74103;BME280;62853;46.166;3.640;2024-01-27T10:22:59;103511.53;;;10.18;100.00
74103;BME280;62853;46.166;3.640;2024-01-27T10:25:37;103521.06;;;10.30;100.00
74103;BME280;62853;46.166;3.640;2024-01-27T10:28:05;103515.84;;;10.23;100.00
74103;BME280;62853;46.166;3.640;2024-01-27T10:30:31;103503.69;;;10.12;100.00
74103;BME280;62853;46.166;3.640;2024-01-27T10:32:57;103507.56;;;9.74;100.00
74103;BME280;62853;46.166;3.640;2024-01-27T10:35:22;103513.94;;;9.42;100.00
74103;BME280;62853;46.166;3.640;2024-01-27T10:37:52;103525.44;;;9.24;100.00
74103;BME280;62853;46.166;3.640;2024-01-27T10:40:18;103519.41;;;9.08;100.00
74103;BME280;62853;46.166;3.640;2024-01-27T10:42:44;103521.22;;;8.97;100.00
74103;BME280;62853;46.166;3.640;2024-01-27T10:45:11;103530.00;;;8.92;100.00
74103;BME280;62853;46.166;3.640;2024-01-27T10:47:38;103522.97;;;8.94;100.00
74103;BME280;62853;46.166;3.640;2024-01-27T10:50:08;103523.00;;;8.88;100.00
74103;BME280;62853;46.166;3.640;2024-01-27T10:52:38;103518.66;;;8.86;100.00
74103;BME280;62853;46.166;3.640;2024-01-27T10:55:05;103501.09;;;8.91;100.00
74103;BME280;62853;46.166;3.640;2024-01-27T10:57:36;103511.53;;;9.03;100.00
74103;BME280;62853;46.166;3.640;2024-01-27T11:00:03;103515.91;;;9.07;100.00
74103;BME280;62853;46.166;3.640;2024-01-27T11:02:35;103512.38;;;9.11;100.00
74103;BME280;62853;46.166;3.640;2024-01-27T11:05:05;103499.19;;;9.18;100.00
74103;BME280;62853;46.166;3.640;2024-01-27T11:07:33;103496.50;;;9.24;100.00
74103;BME280;62853;46.166;3.640;2024-01-27T11:10:00;103495.63;;;9.31;100.00
74103;BME280;62853;46.166;3.640;2024-01-27T11:12:25;103496.44;;;9.36;100.00
74103;BME280;62853;46.166;3.640;2024-01-27T11:14:52;103492.00;;;9.44;100.00
74103;BME280;62853;46.166;3.640;2024-01-27T11:17:19;103491.06;;;9.53;100.00
74103;BME280;62853;46.166;3.640;2024-01-27T11:19:45;103487.47;;;9.63;100.00
74103;BME280;62853;46.166;3.640;2024-01-27T11:22:40;103485.56;;;9.79;100.00
74103;BME280;62853;46.166;3.640;2024-01-27T11:27:35;103481.06;;;9.94;100.00
74103;BME280;62853;46.166;3.640;2024-01-27T11:30:01;103488.81;;;10.06;100.00
74103;BME280;62853;46.166;3.640;2024-01-27T11:32:27;103480.72;;;10.26;100.00
74103;BME280;62853;46.166;3.640;2024-01-27T11:34:52;103477.09;;;10.38;100.00
74103;BME280;62853;46.166;3.640;2024-01-27T11:37:18;103483.13;;;10.49;100.00
74103;BME280;62853;46.166;3.640;2024-01-27T11:39:45;103475.97;;;10.59;100.00
74103;BME280;62853;46.166;3.640;2024-01-27T11:42:12;103474.97;;;10.69;100.00
74103;BME280;62853;46.166;3.640;2024-01-27T11:44:39;103472.16;;;10.82;100.00
74103;BME280;62853;46.166;3.640;2024-01-27T11:47:05;103465.84;;;10.95;100.00
74103;BME280;62853;46.166;3.640;2024-01-27T11:49:30;103465.59;;;11.10;100.00
74103;BME280;62853;46.166;3.640;2024-01-27T11:51:56;103470.66;;;11.24;100.00
74103;BME280;62853;46.166;3.640;2024-01-27T11:54:21;103468.00;;;11.26;100.00
74103;BME280;62853;46.166;3.640;2024-01-27T11:56:47;103467.09;;;11.28;100.00
74103;BME280;62853;46.166;3.640;2024-01-27T11:59:12;103456.31;;;11.44;100.00
74103;BME280;62853;46.166;3.640;2024-01-27T12:01:37;103451.81;;;11.49;100.00
74103;BME280;62853;46.166;3.640;2024-01-27T12:04:07;103450.84;;;11.53;100.00
74103;BME280;62853;46.166;3.640;2024-01-27T12:06:34;103456.09;;;11.54;100.00
74103;BME280;62853;46.166;3.640;2024-01-27T12:08:59;103460.47;;;11.57;100.00
74103;BME280;62853;46.166;3.640;2024-01-27T12:11:25;103457.81;;;11.59;100.00
74103;BME280;62853;46.166;3.640;2024-01-27T12:13:54;103454.22;;;11.61;100.00
74103;BME280;62853;46.166;3.640;2024-01-27T12:16:22;103457.03;;;11.53;100.00
74103;BME280;62853;46.166;3.640;2024-01-27T12:18:52;103457.03;;;11.53;100.00
74103;BME280;62853;46.166;3.640;2024-01-27T12:21:20;103461.16;;;11.68;100.00
74103;BME280;62853;46.166;3.640;2024-01-27T12:23:53;103457.25;;;11.89;100.00
74103;BME280;62853;46.166;3.640;2024-01-27T12:26:26;103452.53;;;12.08;100.00
74103;BME280;62853;46.166;3.640;2024-01-27T12:28:51;103458.41;;;12.24;100.00
74103;BME280;62853;46.166;3.640;2024-01-27T12:31:17;103455.56;;;12.34;100.00
74103;BME280;62853;46.166;3.640;2024-01-27T12:36:16;103438.47;;;12.52;100.00
74103;BME280;62853;46.166;3.640;2024-01-27T12:38:42;103441.81;;;12.60;100.00
74103;BME280;62853;46.166;3.640;2024-01-27T12:41:07;103434.47;;;12.73;100.00
74103;BME280;62853;46.166;3.640;2024-01-27T12:43:32;103436.84;;;12.85;100.00
74103;BME280;62853;46.166;3.640;2024-01-27T12:45:58;103427.19;;;12.82;100.00